Key West, FL

2:43 PM EDT on September 01, 2014 (GMT -0400)
Key West International | Change Station
CLOSE
Current Station
Airport
Location: Key West,
Elevation: 0 ft
Nearby Weather Stations

Elev 0 ft 24.56 °N, 81.75 °W | Updated 50 minutes ago

Clear
Clear
90 °F
Feels Like 101 °F
N
13
Wind Variable Wind from SE

Today
High -- | Low -- °F
--% Chance of Precip.
Yesterday
High -- | Low -- °F
Precip. -- in
7:08 AM 7:45 PM
Waxing Crescent, 43% visible
Pressure 30.07 in
Visibility 10.0 miles
Clouds Clear
Heat Index 101 °F
Dew Point 76 °F
Humidity 63%
Rainfall 0.01 in
Snow Depth Not available.
UV 15 out of 12
Pollen 5.10 out of 12
Air Quality Not available.
Flu Activity Not available.
METAR KEYW 011753Z 13011KT 10SM CLR 32/24 A3007 RMK AO2 SLP181 60001 T03220244 10322 20294 58006

More Conditions Fewer Conditions

Pressure 30.07 in
Visibility 10.0 miles
Clouds Clear
Heat Index 101 °F
Dew Point 76 °F
Humidity 63%
Rainfall 0.01 in
Snow Depth Not available.
UV 15 out of 12
Pollen 5.10 out of 12
Air Quality Not available.
Flu Activity Not available.
METAR KEYW 011753Z 13011KT 10SM CLR 32/24 A3007 RMK AO2 SLP181 60001 T03220244 10322 20294 58006

More Conditions Fewer Conditions

Nowcast | as of 2:03 PM EDT on September 1, 2014

Until 3 PM...isolated showers and a stray thunderstorm will migrate west northwest across the adjacent nearshore and surrounding offshore waters of the Florida Keys. Movement of the activity will be toward the west northwest near 15 knots. Over land...no rainfall is anticipated. A few cells in the outer waters of Mainland Monroe well north of rock key and New Ground rocks light may generate gusty winds near 30 knots...reduce visibility to below 5 miles in moderate to locally heavy rain and a few cloud to water lightning strikes.

×

10-Day Weather Forecast

Almanac

Astronomy

Sep. 01, 2014 Rise Set
Actual Time 7:08 AM EDT 7:45 PM EDT
Civil Twilight 6:45 AM EDT 8:08 PM EDT
Nautical Twilight 6:17 AM EDT 8:35 PM EDT
Astronomical Twilight 5:50 AM EDT 9:03 PM EDT
Moon 1:10 PM EDT No Moon Set
Length of Visible Light 13h 23m
Length of Day
12h 37m
Tomorrow will be 1m 22s shorter.
Waxing Crescent, 43% of the Moon is Illuminated
Today
Waxing Crescent
Sep 2
First Quarter
Sep 8
Full
Sep 15
Last Quarter
Sep 24
New

Today's Extremes

State Highs State Lows

Community

WunderPhotos

Upload Photos

1,749,359 photos uploaded!

Nearby

Snow Depth

Station Depth Elevation
No new snow has been reported.

Earthquake Activity

City Distance Mag. Time & Date
No recent earthquake activity has been reported nearby.
Minimum magnitude displayed is 2.5.

Coastal Water Temperatures

Place Temperature
No Stations Reporting

Nearby Weather Stations